createdAt,value
2023-01-17T00:01:22.872Z,97870.94
2023-01-17T00:03:49.505Z,97877.94
2023-01-17T00:06:16.187Z,97870.47
2023-01-17T00:08:42.807Z,97866.81
2023-01-17T00:11:09.464Z,97874.81
2023-01-17T00:13:36.201Z,97867.22
2023-01-17T00:16:02.876Z,97854.41
2023-01-17T00:18:29.514Z,97848.53
2023-01-17T00:20:56.111Z,97857.97
2023-01-17T00:23:26.264Z,97871.44
2023-01-17T00:25:53.133Z,97865.50
2023-01-17T00:28:19.841Z,97870.88
2023-01-17T00:30:47.001Z,97858.41
2023-01-17T00:33:13.837Z,97865.00
2023-01-17T00:35:40.536Z,97861.69
2023-01-17T00:38:07.236Z,97852.59
2023-01-17T00:40:35.524Z,97851.19
2023-01-17T00:43:02.354Z,97854.47
2023-01-17T00:45:28.938Z,97861.00
2023-01-17T00:47:56.930Z,97859.75
2023-01-17T00:50:23.620Z,97855.78
2023-01-17T00:52:50.197Z,97866.53
2023-01-17T00:55:16.807Z,97858.28
2023-01-17T00:57:43.403Z,97849.63
2023-01-17T01:00:10.929Z,97854.03
2023-01-17T01:02:38.542Z,97851.63
2023-01-17T01:05:05.983Z,97853.97
2023-01-17T01:07:32.592Z,97854.72
2023-01-17T01:09:59.197Z,97845.69
2023-01-17T01:12:25.791Z,97864.03
2023-01-17T01:14:52.417Z,97878.84
2023-01-17T01:17:19.162Z,97873.25
2023-01-17T01:19:45.798Z,97871.31
2023-01-17T01:22:13.768Z,97865.13
2023-01-17T01:24:40.362Z,97875.28
2023-01-17T01:27:07.052Z,97879.91
2023-01-17T01:29:33.694Z,97880.50
2023-01-17T01:32:00.274Z,97871.69
2023-01-17T01:34:26.904Z,97873.59
2023-01-17T01:36:53.632Z,97867.63
2023-01-17T01:39:20.221Z,97868.88
2023-01-17T01:41:46.820Z,97871.78
2023-01-17T01:44:41.197Z,97873.38
2023-01-17T01:47:10.558Z,97880.16
2023-01-17T01:49:38.180Z,97879.84
2023-01-17T01:52:07.375Z,97876.28
2023-01-17T01:54:43.089Z,97874.41
2023-01-17T01:57:13.786Z,97867.63
2023-01-17T01:59:44.619Z,97872.97
2023-01-17T02:02:11.246Z,97861.00
2023-01-17T02:04:38.496Z,97855.78
2023-01-17T02:07:16.750Z,97862.47
2023-01-17T02:09:44.791Z,97851.50
2023-01-17T02:12:12.552Z,97834.84
2023-01-17T02:14:39.188Z,97832.13
2023-01-17T02:17:20.881Z,97829.88
2023-01-17T02:20:08.708Z,97829.13
2023-01-17T02:22:56.628Z,97825.25
2023-01-17T02:25:23.243Z,97822.13
2023-01-17T02:28:19.229Z,97830.72
2023-01-17T02:30:53.889Z,97827.69
2023-01-17T02:33:39.059Z,97829.53
2023-01-17T02:36:30.308Z,97828.66
2023-01-17T02:39:09.867Z,97823.91
2023-01-17T02:41:44.786Z,97819.44
2023-01-17T02:44:16.419Z,97810.00
2023-01-17T02:46:54.990Z,97821.88
2023-01-17T02:49:26.795Z,97823.81
2023-01-17T02:52:07.387Z,97822.97
2023-01-17T02:54:55.652Z,97814.63
2023-01-17T02:57:32.825Z,97798.50
2023-01-17T03:00:17.580Z,97784.31
2023-01-17T03:02:59.012Z,97765.31
2023-01-17T03:05:44.171Z,97762.81
2023-01-17T03:08:12.353Z,97749.75
2023-01-17T03:10:39.948Z,97751.38
2023-01-17T03:13:06.557Z,97754.31
2023-01-17T03:15:33.414Z,97737.78
2023-01-17T03:18:08.507Z,97745.00
2023-01-17T03:20:35.090Z,97748.63
2023-01-17T03:23:01.784Z,97744.59
2023-01-17T03:25:28.410Z,97736.22
2023-01-17T03:27:55.011Z,97730.59
2023-01-17T03:30:23.337Z,97730.41
2023-01-17T03:32:50.041Z,97718.34
2023-01-17T03:35:16.838Z,97713.84
2023-01-17T03:37:43.501Z,97707.72
2023-01-17T03:40:10.719Z,97704.09
2023-01-17T03:42:37.341Z,97700.44
2023-01-17T03:45:04.353Z,97695.13
2023-01-17T03:47:30.953Z,97696.06
2023-01-17T03:49:57.550Z,97695.94
2023-01-17T03:52:24.226Z,97697.19
2023-01-17T03:54:50.890Z,97695.75
2023-01-17T03:57:17.475Z,97690.94
2023-01-17T03:59:44.115Z,97700.28
2023-01-17T04:02:10.858Z,97687.56
2023-01-17T04:04:37.458Z,97689.34
2023-01-17T04:07:04.554Z,97695.47
2023-01-17T04:09:31.159Z,97695.81
2023-01-17T04:11:57.732Z,97693.44
2023-01-17T04:14:24.332Z,97691.03
2023-01-17T04:16:51.107Z,97692.28
2023-01-17T04:19:17.812Z,97686.44
2023-01-17T04:21:44.474Z,97697.81
2023-01-17T04:24:11.054Z,97693.06
2023-01-17T04:26:37.667Z,97697.44
2023-01-17T04:29:04.311Z,97700.97
2023-01-17T04:31:30.928Z,97699.00
2023-01-17T04:33:57.550Z,97705.31
2023-01-17T04:36:24.234Z,97699.69
2023-01-17T04:38:50.839Z,97702.00
2023-01-17T04:41:17.427Z,97705.19
2023-01-17T04:43:44.008Z,97702.66
2023-01-17T04:46:10.617Z,97695.84
2023-01-17T04:48:37.247Z,97701.41
2023-01-17T04:51:05.506Z,97709.56
2023-01-17T04:53:32.641Z,97716.84
2023-01-17T04:55:59.346Z,97716.84
2023-01-17T04:58:26.730Z,97712.47
2023-01-17T05:00:53.359Z,97716.19
2023-01-17T05:03:22.346Z,97717.28
2023-01-17T05:05:49.278Z,97718.16
2023-01-17T05:08:15.944Z,97718.13
2023-01-17T05:10:42.538Z,97715.47
2023-01-17T05:13:09.297Z,97712.34
2023-01-17T05:15:37.004Z,97706.03
2023-01-17T05:18:03.675Z,97710.38
2023-01-17T05:20:31.358Z,97708.34
2023-01-17T05:22:58.467Z,97710.94
2023-01-17T05:25:29.820Z,97711.44
2023-01-17T05:27:57.049Z,97711.44
2023-01-17T05:30:23.777Z,97707.66
2023-01-17T05:32:55.259Z,97706.22
2023-01-17T05:35:24.937Z,97716.84
2023-01-17T05:37:52.138Z,97720.44
2023-01-17T05:40:27.201Z,97722.31
2023-01-17T05:42:55.619Z,97729.59
2023-01-17T05:45:25.923Z,97734.94
2023-01-17T05:47:54.066Z,97739.66
2023-01-17T05:50:24.336Z,97749.31
2023-01-17T05:52:56.650Z,97751.69
2023-01-17T05:55:23.584Z,97755.09
2023-01-17T05:57:50.826Z,97756.75
2023-01-17T06:00:17.875Z,97754.75
2023-01-17T06:02:44.778Z,97765.06
2023-01-17T06:05:12.167Z,97767.94
2023-01-17T06:07:38.765Z,97777.72
2023-01-17T06:10:06.185Z,97780.75
2023-01-17T06:12:32.772Z,97776.91
2023-01-17T06:14:59.454Z,97788.31
2023-01-17T06:17:26.060Z,97782.56
2023-01-17T06:19:52.830Z,97782.06
2023-01-17T06:22:19.434Z,97782.94
2023-01-17T06:24:46.074Z,97785.97
2023-01-17T06:27:12.665Z,97789.75
2023-01-17T06:29:39.316Z,97794.53
2023-01-17T06:32:06.014Z,97788.31
2023-01-17T06:34:32.591Z,97793.41
2023-01-17T06:36:59.200Z,97808.41
2023-01-17T06:39:25.873Z,97806.44
2023-01-17T06:41:52.471Z,97823.16
2023-01-17T06:44:19.165Z,97825.44
2023-01-17T06:46:45.783Z,97825.25
2023-01-17T06:49:12.414Z,97830.75
2023-01-17T06:51:39.060Z,97827.91
2023-01-17T06:54:05.910Z,97825.19
2023-01-17T06:56:33.589Z,97838.00
2023-01-17T06:59:00.175Z,97842.41
2023-01-17T07:01:26.940Z,97843.63
2023-01-17T07:03:54.249Z,97848.88
2023-01-17T07:06:21.259Z,97856.44
2023-01-17T07:08:47.852Z,97853.78
2023-01-17T07:11:14.455Z,97852.84
2023-01-17T07:13:41.316Z,97864.00
2023-01-17T07:16:08.741Z,97877.25
2023-01-17T07:18:35.628Z,97866.34
2023-01-17T07:21:02.345Z,97875.69
2023-01-17T07:23:28.980Z,97883.22
2023-01-17T07:26:00.303Z,97884.25
2023-01-17T07:28:28.026Z,97894.38
2023-01-17T07:30:54.764Z,97896.69
2023-01-17T07:33:21.832Z,97892.78
2023-01-17T07:35:48.418Z,97892.47
2023-01-17T07:38:18.810Z,97902.88
2023-01-17T07:40:46.129Z,97910.88
2023-01-17T07:43:12.965Z,97912.03
2023-01-17T07:45:43.669Z,97921.00
2023-01-17T07:48:11.352Z,97919.59
2023-01-17T07:50:38.796Z,97929.78
2023-01-17T07:53:05.972Z,97936.63
2023-01-17T07:55:32.766Z,97937.91
2023-01-17T07:58:00.764Z,97938.28
2023-01-17T08:00:28.741Z,97930.91
2023-01-17T08:02:59.396Z,97937.69
2023-01-17T08:05:26.283Z,97947.09
2023-01-17T08:07:53.776Z,97947.84
2023-01-17T08:10:20.722Z,97951.28
2023-01-17T08:12:48.612Z,97958.28
2023-01-17T08:15:16.519Z,97966.78
2023-01-17T08:17:48.225Z,97971.47
2023-01-17T08:20:15.879Z,97972.81
2023-01-17T08:22:42.481Z,97969.91
2023-01-17T08:25:09.513Z,97969.44
2023-01-17T08:27:36.392Z,97965.13
2023-01-17T08:30:03.176Z,97960.72
2023-01-17T08:32:29.820Z,97982.53
2023-01-17T08:34:56.425Z,97977.19
2023-01-17T08:37:23.301Z,97983.50
2023-01-17T08:39:50.042Z,97999.00
2023-01-17T08:42:17.053Z,97986.97
2023-01-17T08:44:43.649Z,97996.50
2023-01-17T08:47:10.540Z,98001.78
2023-01-17T08:49:37.143Z,97999.03
2023-01-17T08:52:04.177Z,97998.91
2023-01-17T08:54:30.783Z,98000.72
2023-01-17T08:56:57.486Z,98005.53
2023-01-17T08:59:24.059Z,98009.19
2023-01-17T09:01:50.770Z,98018.28
2023-01-17T09:04:17.623Z,98017.47
2023-01-17T09:06:45.327Z,98022.81
2023-01-17T09:09:11.936Z,98030.28
2023-01-17T09:11:38.543Z,98034.03
2023-01-17T09:14:05.220Z,98049.00
2023-01-17T09:16:32.394Z,98042.38
2023-01-17T09:18:59.695Z,98034.94
2023-01-17T09:21:26.679Z,98032.75
2023-01-17T09:23:54.325Z,98030.72
2023-01-17T09:26:29.604Z,98024.56
2023-01-17T09:28:57.139Z,98020.66
2023-01-17T09:31:24.630Z,98019.59
2023-01-17T09:33:54.227Z,98022.13
2023-01-17T09:36:21.490Z,98039.94
2023-01-17T09:38:48.129Z,98045.59
2023-01-17T09:41:34.151Z,98045.19
2023-01-17T09:44:03.620Z,98054.94
2023-01-17T09:46:34.250Z,98063.19
2023-01-17T09:49:07.532Z,98062.88
2023-01-17T09:51:34.611Z,98079.91
2023-01-17T09:54:01.213Z,98075.41
2023-01-17T09:56:44.875Z,98079.72
2023-01-17T09:59:16.860Z,98074.38
2023-01-17T10:02:26.241Z,98071.00
2023-01-17T10:05:26.637Z,98076.47
2023-01-17T10:07:59.370Z,98079.75
2023-01-17T10:11:03.461Z,98077.94
2023-01-17T10:13:46.285Z,98080.91
2023-01-17T10:16:29.675Z,98083.84
2023-01-17T10:19:08.237Z,98089.16
2023-01-17T10:21:58.182Z,98080.78
2023-01-17T10:24:52.925Z,98082.94
2023-01-17T10:27:34.158Z,98081.69
2023-01-17T10:30:22.779Z,98071.94
2023-01-17T10:32:49.695Z,98074.91
2023-01-17T10:35:21.720Z,98076.50
2023-01-17T10:37:50.451Z,98076.03
2023-01-17T10:40:40.404Z,98067.31
2023-01-17T10:43:06.908Z,98065.50
2023-01-17T10:45:40.725Z,98053.69
2023-01-17T10:48:15.663Z,98054.09
2023-01-17T10:50:58.165Z,98053.88
2023-01-17T10:53:30.758Z,98054.53
2023-01-17T10:55:58.452Z,98066.72
2023-01-17T10:58:25.510Z,98065.38
2023-01-17T11:00:57.310Z,98060.16
2023-01-17T11:03:24.000Z,98043.97
2023-01-17T11:06:17.927Z,98039.94
2023-01-17T11:08:53.686Z,98028.50
2023-01-17T11:11:25.579Z,98028.19
2023-01-17T11:13:54.257Z,98022.88
2023-01-17T11:16:26.062Z,98007.09
2023-01-17T11:19:12.632Z,98011.56
2023-01-17T11:21:39.844Z,98024.53
2023-01-17T11:24:12.298Z,98026.19
2023-01-17T11:26:47.168Z,98012.84
2023-01-17T11:29:32.339Z,98011.81
2023-01-17T11:32:27.462Z,97996.34
2023-01-17T11:35:12.684Z,97989.66
2023-01-17T11:37:39.358Z,97996.59
2023-01-17T11:40:16.866Z,97990.75
2023-01-17T11:42:43.482Z,97994.16
2023-01-17T11:45:30.163Z,97996.69
2023-01-17T11:48:09.029Z,97993.47
2023-01-17T11:51:01.040Z,97997.75
2023-01-17T11:53:37.272Z,98009.16
2023-01-17T11:56:09.808Z,97999.44
2023-01-17T11:58:40.787Z,98015.31
2023-01-17T12:01:35.216Z,98021.31
2023-01-17T12:04:20.035Z,98025.94
2023-01-17T12:07:16.685Z,98024.41
2023-01-17T12:10:12.090Z,98033.34
2023-01-17T12:12:38.642Z,98038.97
2023-01-17T12:15:37.258Z,98031.63
2023-01-17T12:18:33.324Z,98029.34
2023-01-17T12:21:12.072Z,98022.38
2023-01-17T12:23:57.709Z,98021.25
2023-01-17T12:26:36.834Z,98016.22
2023-01-17T12:29:06.323Z,98011.28
2023-01-17T12:31:39.028Z,98009.47
2023-01-17T12:34:28.325Z,98013.31
2023-01-17T12:37:33.882Z,98016.16
2023-01-17T12:40:15.419Z,98020.13
2023-01-17T12:43:06.577Z,98026.16
2023-01-17T12:45:39.897Z,98025.81
2023-01-17T12:48:20.691Z,98017.47
2023-01-17T12:50:50.242Z,98018.38
2023-01-17T12:53:23.904Z,98015.41
2023-01-17T12:56:09.507Z,98013.47
2023-01-17T12:58:48.282Z,98014.03
2023-01-17T13:01:30.350Z,98013.94
2023-01-17T13:04:24.423Z,98008.31
2023-01-17T13:06:59.972Z,98008.31
2023-01-17T13:09:51.503Z,98005.16
2023-01-17T13:12:21.027Z,98002.59
2023-01-17T13:14:48.680Z,98007.69
2023-01-17T13:17:33.520Z,98019.34
2023-01-17T13:20:18.484Z,98023.19
2023-01-17T13:22:47.404Z,98021.22
2023-01-17T13:25:49.303Z,98025.72
2023-01-17T13:28:24.031Z,98036.91
2023-01-17T13:31:02.575Z,98038.06
2023-01-17T13:33:34.927Z,98032.91
2023-01-17T13:36:27.682Z,98023.47
2023-01-17T13:38:57.224Z,98016.16
2023-01-17T13:41:45.241Z,98005.28
2023-01-17T13:44:14.033Z,98004.66
2023-01-17T13:47:06.275Z,97997.50
2023-01-17T13:49:36.029Z,97987.03
2023-01-17T13:52:08.045Z,97989.31
2023-01-17T13:54:55.573Z,97991.78
2023-01-17T13:57:30.522Z,97988.34
2023-01-17T14:00:10.435Z,97976.25
2023-01-17T14:02:39.054Z,97969.91
2023-01-17T14:05:10.807Z,97964.97
2023-01-17T14:07:52.232Z,97953.09
2023-01-17T14:10:21.920Z,97944.84
2023-01-17T14:12:49.522Z,97934.09
2023-01-17T14:15:21.893Z,97928.63
2023-01-17T14:17:55.589Z,97917.31
2023-01-17T14:20:25.136Z,97914.38
2023-01-17T14:22:55.786Z,97910.94
2023-01-17T14:25:39.864Z,97910.97
2023-01-17T14:28:23.189Z,97894.06
2023-01-17T14:30:52.634Z,97892.00
2023-01-17T14:33:39.924Z,97885.28
2023-01-17T14:36:13.404Z,97882.88
2023-01-17T14:38:44.167Z,97879.41
2023-01-17T14:41:27.379Z,97867.94
2023-01-17T14:43:54.839Z,97876.19
2023-01-17T14:46:28.014Z,97878.63
2023-01-17T14:49:06.428Z,97873.53
2023-01-17T14:51:33.302Z,97866.16
2023-01-17T14:54:01.368Z,97855.50
2023-01-17T14:56:30.075Z,97845.88
2023-01-17T14:59:17.352Z,97845.25
2023-01-17T15:02:06.312Z,97856.50
2023-01-17T15:04:34.198Z,97854.94
2023-01-17T15:07:01.085Z,97864.47
2023-01-17T15:09:35.580Z,97861.38
2023-01-17T15:12:02.822Z,97862.75
2023-01-17T15:14:34.592Z,97865.28
2023-01-17T15:17:21.973Z,97868.13
2023-01-17T15:19:59.154Z,97866.63
2023-01-17T15:22:27.088Z,97856.94
2023-01-17T15:24:54.631Z,97850.81
2023-01-17T15:27:21.377Z,97840.81
2023-01-17T15:29:48.663Z,97845.97
2023-01-17T15:32:25.419Z,97846.72
2023-01-17T15:34:52.625Z,97845.25
2023-01-17T15:37:37.836Z,97843.69
2023-01-17T15:40:23.548Z,97840.50
2023-01-17T15:42:58.558Z,97824.28
2023-01-17T15:45:31.063Z,97820.28
2023-01-17T15:47:58.581Z,97813.78
2023-01-17T15:50:29.360Z,97804.09
2023-01-17T15:53:02.243Z,97808.41
2023-01-17T15:55:38.370Z,97804.06
2023-01-17T15:58:22.934Z,97797.13
2023-01-17T16:00:49.651Z,97802.31
2023-01-17T16:03:27.816Z,97805.44
2023-01-17T16:05:56.983Z,97794.16
2023-01-17T16:08:38.861Z,97787.66
2023-01-17T16:11:07.674Z,97794.16
2023-01-17T16:13:37.140Z,97794.94
2023-01-17T16:16:21.405Z,97795.59
2023-01-17T16:18:49.635Z,97798.25
2023-01-17T16:21:20.750Z,97799.72
2023-01-17T16:23:47.487Z,97801.50
2023-01-17T16:26:15.197Z,97796.78
2023-01-17T16:28:41.849Z,97792.03
2023-01-17T16:31:08.610Z,97782.16
2023-01-17T16:33:35.329Z,97779.91
2023-01-17T16:36:01.944Z,97776.16
2023-01-17T16:38:28.708Z,97770.28
2023-01-17T16:40:55.292Z,97774.75
2023-01-17T16:43:21.862Z,97765.84
2023-01-17T16:45:50.785Z,97762.47
2023-01-17T16:48:19.317Z,97768.63
2023-01-17T16:50:48.935Z,97761.91
2023-01-17T16:53:16.250Z,97759.03
2023-01-17T16:55:44.050Z,97749.00
2023-01-17T16:58:11.483Z,97756.00
2023-01-17T17:00:40.239Z,97751.53
2023-01-17T17:03:06.837Z,97749.56
2023-01-17T17:05:33.435Z,97746.03
2023-01-17T17:08:00.935Z,97749.06
2023-01-17T17:10:27.584Z,97739.22
2023-01-17T17:12:54.286Z,97743.22
2023-01-17T17:15:21.049Z,97737.38
2023-01-17T17:17:47.871Z,97730.09
2023-01-17T17:20:15.943Z,97709.44
2023-01-17T17:22:44.714Z,97715.03
2023-01-17T17:25:13.319Z,97706.25
2023-01-17T17:27:42.557Z,97703.06
2023-01-17T17:30:29.485Z,97691.25
2023-01-17T17:32:56.706Z,97691.88
2023-01-17T17:35:23.713Z,97680.38
2023-01-17T17:37:50.720Z,97670.94
2023-01-17T17:40:17.756Z,97677.47
2023-01-17T17:42:44.590Z,97671.00
2023-01-17T17:45:11.701Z,97658.81
2023-01-17T17:47:38.632Z,97647.31
2023-01-17T17:50:05.869Z,97632.50
2023-01-17T17:52:32.813Z,97628.41
2023-01-17T17:54:59.772Z,97612.63
2023-01-17T17:57:26.622Z,97603.81
2023-01-17T17:59:53.643Z,97600.50
2023-01-17T18:02:20.469Z,97592.34
2023-01-17T18:04:47.368Z,97592.09
2023-01-17T18:07:14.232Z,97576.88
2023-01-17T18:09:41.140Z,97576.09
2023-01-17T18:12:08.179Z,97566.00
2023-01-17T18:14:35.028Z,97542.44
2023-01-17T18:17:01.895Z,97529.75
2023-01-17T18:19:30.043Z,97522.16
2023-01-17T18:21:56.957Z,97512.19
2023-01-17T18:24:25.277Z,97498.44
2023-01-17T18:26:54.625Z,97501.09
2023-01-17T18:29:22.909Z,97501.38
2023-01-17T18:31:50.854Z,97505.38
2023-01-17T18:34:20.563Z,97522.34
2023-01-17T18:36:50.091Z,97500.44
2023-01-17T18:39:19.555Z,97498.19
2023-01-17T18:41:46.908Z,97501.56
2023-01-17T18:44:16.846Z,97501.63
2023-01-17T18:46:43.770Z,97490.59
2023-01-17T18:49:12.263Z,97493.41
2023-01-17T18:51:39.145Z,97485.13
2023-01-17T18:54:07.120Z,97490.31
2023-01-17T18:56:35.048Z,97466.94
2023-01-17T18:59:03.923Z,97472.00
2023-01-17T19:01:35.186Z,97449.50
2023-01-17T19:04:04.711Z,97462.50
2023-01-17T19:06:37.883Z,97462.81
2023-01-17T19:09:06.283Z,97455.06
2023-01-17T19:11:34.285Z,97428.34
2023-01-17T19:14:01.173Z,97421.75
2023-01-17T19:16:31.343Z,97411.47
2023-01-17T19:19:02.472Z,97405.25
2023-01-17T19:21:29.862Z,97394.16
2023-01-17T19:23:57.811Z,97388.16
2023-01-17T19:26:24.938Z,97390.34
2023-01-17T19:28:52.113Z,97402.25
2023-01-17T19:31:21.851Z,97391.84
2023-01-17T19:33:50.738Z,97398.09
2023-01-17T19:36:34.960Z,97416.25
2023-01-17T19:39:05.648Z,97394.53
2023-01-17T19:41:34.697Z,97395.00
2023-01-17T19:44:05.344Z,97382.53
2023-01-17T19:46:32.940Z,97382.03
2023-01-17T19:49:04.331Z,97374.44
2023-01-17T19:51:33.890Z,97379.38
2023-01-17T19:54:00.806Z,97368.09
2023-01-17T19:56:27.725Z,97360.94
2023-01-17T19:58:54.858Z,97337.88
2023-01-17T20:01:24.758Z,97335.16
2023-01-17T20:03:52.249Z,97321.41
2023-01-17T20:06:21.771Z,97320.50
2023-01-17T20:08:48.729Z,97311.47
2023-01-17T20:11:17.952Z,97309.97
2023-01-17T20:13:45.813Z,97296.06
2023-01-17T20:16:14.354Z,97277.47
2023-01-17T20:18:41.873Z,97257.53
2023-01-17T20:21:14.576Z,97279.41
2023-01-17T20:23:43.589Z,97273.69
2023-01-17T20:26:11.675Z,97289.88
2023-01-17T20:28:40.501Z,97297.75
2023-01-17T20:31:10.419Z,97286.34
2023-01-17T20:33:37.276Z,97292.25
2023-01-17T20:36:10.522Z,97309.97
2023-01-17T20:38:39.138Z,97327.28
2023-01-17T20:41:06.133Z,97311.00
2023-01-17T20:43:32.969Z,97311.09
2023-01-17T20:45:59.860Z,97308.88
2023-01-17T20:48:26.808Z,97292.84
2023-01-17T20:50:53.735Z,97293.41
2023-01-17T20:53:20.578Z,97273.72
2023-01-17T20:55:47.519Z,97279.59
2023-01-17T20:58:14.345Z,97274.16
2023-01-17T21:00:41.263Z,97270.03
2023-01-17T21:03:09.906Z,97265.91
2023-01-17T21:05:36.764Z,97264.72
2023-01-17T21:08:03.718Z,97267.00
2023-01-17T21:10:30.991Z,97264.31
2023-01-17T21:13:00.096Z,97248.31
2023-01-17T21:15:27.055Z,97237.81
2023-01-17T21:17:54.108Z,97230.75
2023-01-17T21:20:21.029Z,97220.78
2023-01-17T21:22:47.864Z,97212.97
2023-01-17T21:25:14.827Z,97204.19
2023-01-17T21:27:41.667Z,97211.69
2023-01-17T21:30:09.275Z,97200.69
2023-01-17T21:32:36.109Z,97205.19
2023-01-17T21:35:02.971Z,97194.13
2023-01-17T21:37:29.821Z,97205.84
2023-01-17T21:39:56.668Z,97198.56
2023-01-17T21:42:23.596Z,97174.47
2023-01-17T21:44:50.504Z,97156.47
2023-01-17T21:47:17.760Z,97149.63
2023-01-17T21:49:44.749Z,97151.28
2023-01-17T21:52:12.335Z,97147.41
2023-01-17T21:54:39.171Z,97151.84
2023-01-17T21:57:06.000Z,97160.78
2023-01-17T21:59:32.842Z,97183.31
2023-01-17T22:01:59.713Z,97182.59
2023-01-17T22:04:26.619Z,97166.88
2023-01-17T22:06:53.469Z,97157.41
2023-01-17T22:09:20.421Z,97146.94
2023-01-17T22:11:47.281Z,97147.78
2023-01-17T22:14:14.228Z,97153.47
2023-01-17T22:16:41.131Z,97149.59
2023-01-17T22:19:07.970Z,97156.00
2023-01-17T22:21:34.793Z,97156.50
2023-01-17T22:24:01.702Z,97139.84
2023-01-17T22:26:30.957Z,97104.22
2023-01-17T22:29:01.119Z,97132.31
2023-01-17T22:31:28.671Z,97133.44
2023-01-17T22:34:02.544Z,97142.59
2023-01-17T22:36:31.851Z,97132.13
2023-01-17T22:38:59.446Z,97136.81
2023-01-17T22:41:28.511Z,97155.38
2023-01-17T22:43:58.649Z,97162.53
2023-01-17T22:46:30.744Z,97165.47
2023-01-17T22:48:58.679Z,97166.81
2023-01-17T22:51:27.979Z,97160.63
2023-01-17T22:54:00.125Z,97163.47
2023-01-17T22:56:30.706Z,97161.81
2023-01-17T22:59:01.924Z,97166.88
2023-01-17T23:01:31.343Z,97171.56
2023-01-17T23:04:04.295Z,97158.84
2023-01-17T23:06:37.089Z,97157.91
2023-01-17T23:09:15.465Z,97156.94
2023-01-17T23:11:49.143Z,97177.47
2023-01-17T23:14:15.952Z,97188.00
2023-01-17T23:16:46.679Z,97178.09
2023-01-17T23:19:13.819Z,97191.28
2023-01-17T23:21:40.684Z,97191.28
2023-01-17T23:24:07.574Z,97191.28
2023-01-17T23:26:36.445Z,97195.69
2023-01-17T23:29:03.291Z,97210.38
2023-01-17T23:31:30.180Z,97215.94
2023-01-17T23:33:57.053Z,97212.91
2023-01-17T23:36:23.924Z,97210.72
2023-01-17T23:38:50.838Z,97207.50
2023-01-17T23:41:17.704Z,97205.47
2023-01-17T23:43:44.680Z,97216.06
2023-01-17T23:46:12.738Z,97205.19
2023-01-17T23:48:39.709Z,97195.69
2023-01-17T23:51:06.664Z,97203.84
2023-01-17T23:53:35.981Z,97209.91
2023-01-17T23:56:22.015Z,97210.56
2023-01-17T23:58:49.317Z,97213.09
